createdAt,value
2019-04-30T00:02:34.391Z,100250.97
2019-04-30T00:05:00.733Z,100250.20
2019-04-30T00:07:32.537Z,100246.73
2019-04-30T00:10:06.118Z,100252.95
2019-04-30T00:12:39.662Z,100246.53
2019-04-30T00:15:16.209Z,100244.17
2019-04-30T00:17:45.997Z,100242.35
2019-04-30T00:20:18.720Z,100242.42
2019-04-30T00:22:50.869Z,100238.02
2019-04-30T00:25:24.947Z,100241.45
2019-04-30T00:28:00.244Z,100235.19
2019-04-30T00:30:35.085Z,100231.64
2019-04-30T00:33:08.163Z,100234.69
2019-04-30T00:35:40.327Z,100233.22
2019-04-30T00:38:15.132Z,100230.97
2019-04-30T00:40:46.938Z,100231.55
2019-04-30T00:43:18.791Z,100228.39
2019-04-30T00:45:50.553Z,100232.82
2019-04-30T00:48:27.994Z,100221.39
2019-04-30T00:50:55.922Z,100228.48
2019-04-30T00:53:27.824Z,100216.81
2019-04-30T00:55:59.591Z,100222.02
2019-04-30T00:58:32.004Z,100218.86
2019-04-30T01:01:22.434Z,100219.00
2019-04-30T01:04:00.055Z,100221.09
2019-04-30T01:06:31.841Z,100218.25
2019-04-30T01:09:05.418Z,100204.80
2019-04-30T01:11:39.742Z,100205.57
2019-04-30T01:14:13.368Z,100210.69
2019-04-30T01:16:46.854Z,100207.84
2019-04-30T01:19:29.170Z,100209.05
2019-04-30T01:21:56.001Z,100203.95
2019-04-30T01:24:31.435Z,100206.59
2019-04-30T01:27:06.951Z,100202.28
2019-04-30T01:29:40.753Z,100203.45
2019-04-30T01:32:10.455Z,100199.23
2019-04-30T01:34:44.233Z,100196.29
2019-04-30T01:37:20.262Z,100193.83
2019-04-30T01:39:50.607Z,100188.04
2019-04-30T01:42:22.564Z,100186.66
2019-04-30T01:44:55.966Z,100179.70
2019-04-30T01:47:29.518Z,100186.34
2019-04-30T01:50:04.876Z,100192.84
2019-04-30T01:52:53.297Z,100187.80
2019-04-30T01:55:50.076Z,100181.00
2019-04-30T01:58:33.151Z,100190.72
2019-04-30T02:01:09.110Z,100175.50
2019-04-30T02:03:41.256Z,100177.66
2019-04-30T02:06:13.141Z,100176.47
2019-04-30T02:08:44.984Z,100180.84
2019-04-30T02:11:19.095Z,100174.13
2019-04-30T02:13:51.747Z,100178.30
2019-04-30T02:16:23.482Z,100172.70
2019-04-30T02:18:55.322Z,100168.70
2019-04-30T02:21:29.924Z,100172.55
2019-04-30T02:24:01.562Z,100164.26
2019-04-30T02:26:33.713Z,100162.14
2019-04-30T02:29:05.551Z,100154.72
2019-04-30T02:31:37.330Z,100162.27
2019-04-30T02:34:21.783Z,100161.81
2019-04-30T02:36:59.844Z,100166.78
2019-04-30T02:39:31.645Z,100167.28
2019-04-30T02:42:03.746Z,100169.30
2019-04-30T02:44:35.674Z,100159.44
2019-04-30T02:47:10.475Z,100165.87
2019-04-30T02:49:42.439Z,100156.30
2019-04-30T02:52:15.898Z,100161.53
2019-04-30T02:54:49.992Z,100157.45
2019-04-30T02:57:23.699Z,100155.64
2019-04-30T03:00:12.928Z,100152.27
2019-04-30T03:02:46.331Z,100157.97
2019-04-30T03:05:20.307Z,100162.09
2019-04-30T03:07:53.536Z,100159.06
2019-04-30T03:10:25.234Z,100168.59
2019-04-30T03:13:00.173Z,100172.37
2019-04-30T03:15:33.079Z,100166.28
2019-04-30T03:18:25.075Z,100170.41
2019-04-30T03:21:09.637Z,100167.73
2019-04-30T03:23:40.999Z,100168.38
2019-04-30T03:26:13.139Z,100166.84
2019-04-30T03:28:44.942Z,100177.14
2019-04-30T03:31:22.477Z,100169.85
2019-04-30T03:33:52.736Z,100174.37
2019-04-30T03:36:24.497Z,100170.98
2019-04-30T03:38:56.298Z,100164.26
2019-04-30T03:41:33.101Z,100167.35
2019-04-30T03:44:17.274Z,100168.28
2019-04-30T03:46:39.804Z,100168.30
2019-04-30T03:49:13.405Z,100164.89
2019-04-30T03:51:46.817Z,100173.54
2019-04-30T03:54:19.519Z,100176.55
2019-04-30T03:56:53.023Z,100174.06
2019-04-30T03:59:24.890Z,100171.08
2019-04-30T04:02:12.941Z,100170.29
2019-04-30T04:04:52.812Z,100170.09
2019-04-30T04:07:43.706Z,100165.61
2019-04-30T04:10:34.292Z,100162.17
2019-04-30T04:13:10.207Z,100165.35
2019-04-30T04:15:42.007Z,100172.00
2019-04-30T04:18:13.834Z,100171.52
2019-04-30T04:20:45.974Z,100169.53
2019-04-30T04:23:19.308Z,100173.50
2019-04-30T04:25:51.395Z,100171.81
2019-04-30T04:28:23.210Z,100161.74
2019-04-30T04:30:55.404Z,100161.77
2019-04-30T04:33:29.453Z,100168.59
2019-04-30T04:36:01.906Z,100163.89
2019-04-30T04:38:33.677Z,100164.35
2019-04-30T04:41:05.422Z,100158.95
2019-04-30T04:43:43.195Z,100157.47
2019-04-30T04:46:15.397Z,100165.21
2019-04-30T04:48:50.314Z,100157.95
2019-04-30T04:51:36.804Z,100165.95
2019-04-30T04:53:55.917Z,100170.23
2019-04-30T04:56:30.246Z,100168.38
2019-04-30T04:59:01.189Z,100166.81
2019-04-30T05:01:35.680Z,100166.53
2019-04-30T05:04:11.503Z,100166.47
2019-04-30T05:06:41.536Z,100161.00
2019-04-30T05:09:13.295Z,100160.03
2019-04-30T05:11:45.031Z,100164.41
2019-04-30T05:14:18.971Z,100162.27
2019-04-30T05:16:55.285Z,100162.98
2019-04-30T05:19:28.663Z,100167.81
2019-04-30T05:22:01.077Z,100161.27
2019-04-30T05:24:33.059Z,100164.72
2019-04-30T05:27:04.877Z,100165.13
2019-04-30T05:29:38.605Z,100162.37
2019-04-30T05:32:10.330Z,100163.05
2019-04-30T05:34:42.091Z,100162.73
2019-04-30T05:37:14.220Z,100171.73
2019-04-30T05:39:45.968Z,100171.88
2019-04-30T05:42:18.497Z,100167.66
2019-04-30T05:44:50.524Z,100168.27
2019-04-30T05:47:22.388Z,100168.38
2019-04-30T05:49:54.259Z,100169.14
2019-04-30T05:52:29.519Z,100170.62
2019-04-30T05:55:01.478Z,100168.30
2019-04-30T05:57:33.259Z,100171.86
2019-04-30T06:00:06.346Z,100174.29
2019-04-30T06:02:39.925Z,100175.15
2019-04-30T06:05:11.692Z,100177.27
2019-04-30T06:07:43.611Z,100181.67
2019-04-30T06:10:26.364Z,100185.36
2019-04-30T06:13:09.083Z,100192.36
2019-04-30T06:15:51.399Z,100190.28
2019-04-30T06:18:23.152Z,100198.41
2019-04-30T06:20:55.974Z,100195.36
2019-04-30T06:23:29.379Z,100204.16
2019-04-30T06:26:09.409Z,100209.03
2019-04-30T06:28:36.657Z,100210.20
2019-04-30T06:31:09.096Z,100213.83
2019-04-30T06:33:41.554Z,100213.54
2019-04-30T06:36:13.368Z,100213.12
2019-04-30T06:38:45.599Z,100212.83
2019-04-30T06:41:17.489Z,100211.80
2019-04-30T06:43:49.289Z,100216.63
2019-04-30T06:46:21.038Z,100217.64
2019-04-30T06:48:54.982Z,100217.19
2019-04-30T06:51:30.583Z,100217.42
2019-04-30T06:54:00.530Z,100218.31
2019-04-30T06:56:32.341Z,100220.36
2019-04-30T06:59:04.239Z,100223.89
2019-04-30T07:01:36.074Z,100223.86
2019-04-30T07:04:07.832Z,100228.10
2019-04-30T07:06:44.015Z,100231.30
2019-04-30T07:09:43.610Z,100227.95
2019-04-30T07:12:27.154Z,100229.86
2019-04-30T07:14:52.253Z,100235.99
2019-04-30T07:17:24.010Z,100232.39
2019-04-30T07:20:01.301Z,100233.19
2019-04-30T07:25:09.853Z,100232.66
2019-04-30T07:27:42.946Z,100232.30
2019-04-30T07:30:14.753Z,100233.28
2019-04-30T07:32:48.230Z,100229.88
2019-04-30T07:35:19.993Z,100236.00
2019-04-30T07:37:54.686Z,100230.91
2019-04-30T07:40:29.012Z,100230.78
2019-04-30T07:43:00.350Z,100234.64
2019-04-30T07:45:32.373Z,100231.58
2019-04-30T07:48:04.429Z,100234.90
2019-04-30T07:50:36.745Z,100235.16
2019-04-30T07:53:11.205Z,100234.77
2019-04-30T07:55:42.357Z,100237.73
2019-04-30T07:58:14.121Z,100227.88
2019-04-30T08:00:50.345Z,100229.80
2019-04-30T08:03:40.349Z,100235.62
2019-04-30T08:06:13.310Z,100230.06
2019-04-30T08:08:45.593Z,100229.98
2019-04-30T08:09:34.154Z,100236.77
2019-04-30T08:11:25.629Z,100242.06
2019-04-30T08:13:51.715Z,100242.83
2019-04-30T08:16:24.247Z,100242.45
2019-04-30T08:18:56.937Z,100247.39
2019-04-30T08:21:34.322Z,100246.38
2019-04-30T08:24:13.636Z,100244.81
2019-04-30T08:26:47.019Z,100241.34
2019-04-30T08:29:19.481Z,100245.25
2019-04-30T08:31:51.447Z,100248.67
2019-04-30T08:34:23.258Z,100250.39
2019-04-30T08:36:56.341Z,100246.68
2019-04-30T08:39:31.821Z,100246.20
2019-04-30T08:42:04.070Z,100242.38
2019-04-30T08:44:35.913Z,100231.66
2019-04-30T08:47:11.627Z,100228.61
2019-04-30T08:49:43.856Z,100232.37
2019-04-30T08:52:15.897Z,100236.48
2019-04-30T08:54:51.506Z,100232.34
2019-04-30T08:57:24.398Z,100224.86
2019-04-30T08:59:56.157Z,100227.92
2019-04-30T09:02:31.067Z,100225.26
2019-04-30T09:05:09.531Z,100220.94
2019-04-30T09:07:42.297Z,100222.17
2019-04-30T09:10:14.552Z,100222.98
2019-04-30T09:12:46.323Z,100221.43
2019-04-30T09:15:18.829Z,100223.00
2019-04-30T09:18:00.743Z,100219.19
2019-04-30T09:20:24.267Z,100213.45
2019-04-30T09:22:56.086Z,100210.77
2019-04-30T09:25:28.701Z,100211.02
2019-04-30T09:28:00.616Z,100209.27
2019-04-30T09:30:33.511Z,100202.70
2019-04-30T09:33:05.278Z,100204.33
2019-04-30T09:35:39.519Z,100202.89
2019-04-30T09:38:11.587Z,100200.59
2019-04-30T09:40:43.664Z,100194.23
2019-04-30T09:43:15.851Z,100199.73
2019-04-30T09:45:51.029Z,100198.22
2019-04-30T09:48:25.354Z,100198.70
2019-04-30T09:51:01.256Z,100189.83
2019-04-30T09:53:33.368Z,100187.56
2019-04-30T09:56:05.130Z,100192.87
2019-04-30T09:58:40.463Z,100186.84
2019-04-30T10:01:12.274Z,100183.62
2019-04-30T10:03:44.528Z,100180.09
2019-04-30T10:06:16.632Z,100174.00
2019-04-30T10:08:51.333Z,100171.97
2019-04-30T10:11:42.295Z,100172.02
2019-04-30T10:14:14.420Z,100176.81
2019-04-30T10:17:20.021Z,100177.44
2019-04-30T10:19:54.352Z,100169.27
2019-04-30T10:22:26.151Z,100163.54
2019-04-30T10:24:59.694Z,100161.63
2019-04-30T10:27:31.934Z,100160.58
2019-04-30T10:30:03.767Z,100155.16
2019-04-30T10:32:35.986Z,100149.55
2019-04-30T10:35:07.804Z,100149.39
2019-04-30T10:37:39.641Z,100150.48
2019-04-30T10:40:11.475Z,100153.25
2019-04-30T10:42:43.370Z,100147.45
2019-04-30T10:45:15.176Z,100143.25
2019-04-30T10:47:46.966Z,100136.21
2019-04-30T10:50:21.353Z,100133.80
2019-04-30T10:52:53.214Z,100131.33
2019-04-30T10:55:24.977Z,100134.77
2019-04-30T10:57:59.331Z,100135.06
2019-04-30T11:00:39.434Z,100133.91
2019-04-30T11:03:19.838Z,100134.20
2019-04-30T11:05:45.975Z,100124.53
2019-04-30T11:08:17.766Z,100128.39
2019-04-30T11:10:49.534Z,100127.83
2019-04-30T11:13:22.561Z,100126.17
2019-04-30T11:15:54.305Z,100122.19
2019-04-30T11:18:26.318Z,100117.48
2019-04-30T11:20:59.762Z,100120.86
2019-04-30T11:23:35.059Z,100121.76
2019-04-30T11:26:07.568Z,100111.33
2019-04-30T11:28:39.954Z,100109.30
2019-04-30T11:31:36.750Z,100109.66
2019-04-30T11:34:08.840Z,100099.45
2019-04-30T11:36:42.487Z,100102.44
2019-04-30T11:39:18.664Z,100095.02
2019-04-30T11:41:50.622Z,100092.70
2019-04-30T11:44:31.023Z,100090.48
2019-04-30T11:47:29.723Z,100084.30
2019-04-30T11:51:01.453Z,100078.43
2019-04-30T11:53:33.450Z,100082.13
2019-04-30T11:56:05.203Z,100079.70
2019-04-30T11:58:38.927Z,100079.34
2019-04-30T12:01:11.029Z,100067.69
2019-04-30T12:03:42.769Z,100067.87
2019-04-30T12:06:14.645Z,100062.61
2019-04-30T12:09:03.784Z,100061.61
2019-04-30T12:11:37.615Z,100057.38
2019-04-30T12:14:09.224Z,100053.72
2019-04-30T12:16:40.996Z,100054.33
2019-04-30T12:19:13.334Z,100052.30
2019-04-30T12:21:46.106Z,100048.59
2019-04-30T12:24:17.867Z,100042.62
2019-04-30T12:26:50.840Z,100031.02
2019-04-30T12:29:22.657Z,100030.84
2019-04-30T12:31:54.457Z,100028.94
2019-04-30T12:34:26.209Z,100026.03
2019-04-30T12:36:59.614Z,100018.52
2019-04-30T12:39:34.012Z,100012.58
2019-04-30T12:42:08.752Z,100011.25
2019-04-30T12:44:40.822Z,100011.38
2019-04-30T12:47:12.578Z,100002.31
2019-04-30T12:50:04.306Z,100010.59
2019-04-30T12:52:40.840Z,100006.52
2019-04-30T12:55:33.123Z,100009.41
2019-04-30T12:58:06.065Z,100003.83
2019-04-30T13:00:39.238Z,100003.67
2019-04-30T13:03:11.122Z,100008.56
2019-04-30T13:05:43.156Z,99992.61
2019-04-30T13:08:16.164Z,99991.25
2019-04-30T13:10:51.429Z,100002.87
2019-04-30T13:13:26.260Z,100002.17
2019-04-30T13:16:00.029Z,99998.63
2019-04-30T13:18:33.543Z,99992.68
2019-04-30T13:21:05.280Z,99990.08
2019-04-30T13:23:38.903Z,99983.06
2019-04-30T13:26:10.734Z,99982.12
2019-04-30T13:28:55.830Z,99973.22
2019-04-30T13:31:29.442Z,99973.78
2019-04-30T13:34:25.986Z,99974.20
2019-04-30T13:36:59.390Z,99978.97
2019-04-30T13:39:50.218Z,99975.53
2019-04-30T13:42:20.597Z,99963.11
2019-04-30T13:44:52.900Z,99976.73
2019-04-30T13:47:25.033Z,99964.14
2019-04-30T13:49:56.777Z,99964.48
2019-04-30T13:52:28.910Z,99959.85
2019-04-30T13:55:03.291Z,99957.17
2019-04-30T13:57:35.037Z,99955.23
2019-04-30T14:00:08.718Z,99957.28
2019-04-30T14:02:47.633Z,99952.20
2019-04-30T14:05:19.390Z,99954.55
2019-04-30T14:08:13.035Z,99952.69
2019-04-30T14:10:45.941Z,99950.13
2019-04-30T14:13:17.683Z,99946.76
2019-04-30T14:15:49.561Z,99945.14
2019-04-30T14:18:28.561Z,99940.66
2019-04-30T14:20:54.915Z,99935.97
2019-04-30T14:23:28.574Z,99938.58
2019-04-30T14:26:01.657Z,99936.69
2019-04-30T14:28:33.441Z,99932.64
2019-04-30T14:31:05.545Z,99928.68
2019-04-30T14:33:37.278Z,99927.25
2019-04-30T14:36:09.384Z,99916.92
2019-04-30T14:38:41.243Z,99913.72
2019-04-30T14:41:14.030Z,99908.41
2019-04-30T14:43:52.051Z,99908.61
2019-04-30T14:46:43.429Z,99903.86
2019-04-30T14:49:33.648Z,99899.88
2019-04-30T14:52:06.215Z,99903.75
2019-04-30T14:54:58.657Z,99905.58
2019-04-30T14:57:51.073Z,99900.52
2019-04-30T15:00:40.301Z,99897.15
2019-04-30T15:03:14.169Z,99895.45
2019-04-30T15:05:49.468Z,99895.37
2019-04-30T15:08:19.843Z,99891.75
2019-04-30T15:10:51.636Z,99891.45
2019-04-30T15:13:23.446Z,99887.67
2019-04-30T15:15:55.475Z,99886.98
2019-04-30T15:18:29.034Z,99885.52
2019-04-30T15:21:00.791Z,99882.11
2019-04-30T15:23:58.764Z,99879.00
2019-04-30T15:26:25.756Z,99872.02
2019-04-30T15:29:00.020Z,99875.39
2019-04-30T15:31:32.544Z,99870.02
2019-04-30T15:34:12.680Z,99873.82
2019-04-30T15:36:44.396Z,99870.38
2019-04-30T15:39:36.349Z,99866.70
2019-04-30T15:42:09.107Z,99860.41
2019-04-30T15:44:45.234Z,99862.70
2019-04-30T15:47:14.390Z,99863.70
2019-04-30T15:49:46.451Z,99865.34
2019-04-30T15:52:18.922Z,99863.34
2019-04-30T15:54:51.026Z,99861.73
2019-04-30T15:57:22.791Z,99865.73
2019-04-30T15:59:54.583Z,99861.78
2019-04-30T16:02:57.087Z,99858.77
2019-04-30T16:05:32.126Z,99861.98
2019-04-30T16:08:25.560Z,99855.05
2019-04-30T16:11:14.726Z,99860.78
2019-04-30T16:14:18.665Z,99863.84
2019-04-30T16:17:15.400Z,99861.13
2019-04-30T16:19:47.473Z,99858.31
2019-04-30T16:22:20.856Z,99852.88
2019-04-30T16:24:54.650Z,99835.17
2019-04-30T16:27:26.339Z,99855.79
2019-04-30T16:29:59.499Z,99861.31
2019-04-30T16:32:31.730Z,99860.35
2019-04-30T16:35:03.449Z,99857.33
2019-04-30T16:37:35.238Z,99863.26
2019-04-30T16:40:08.304Z,99858.62
2019-04-30T16:42:40.538Z,99858.05
2019-04-30T16:45:14.143Z,99858.59
2019-04-30T16:47:45.925Z,99858.97
2019-04-30T16:50:18.796Z,99859.31
2019-04-30T16:52:52.441Z,99856.96
2019-04-30T16:55:24.212Z,99849.36
2019-04-30T16:57:56.292Z,99851.88
2019-04-30T17:00:29.074Z,99852.25
2019-04-30T17:03:06.201Z,99846.48
2019-04-30T17:05:45.413Z,99844.83
2019-04-30T17:08:40.158Z,99843.66
2019-04-30T17:11:33.875Z,99846.33
2019-04-30T17:14:07.936Z,99833.87
2019-04-30T17:16:40.135Z,99844.14
2019-04-30T17:19:13.718Z,99838.44
2019-04-30T17:21:46.764Z,99838.92
2019-04-30T17:24:19.399Z,99840.11
2019-04-30T17:26:51.647Z,99838.75
2019-04-30T17:29:23.360Z,99839.73
2019-04-30T17:31:55.351Z,99836.37
2019-04-30T17:34:29.140Z,99836.19
2019-04-30T17:37:00.626Z,99831.63
2019-04-30T17:39:34.311Z,99827.91
2019-04-30T17:42:06.094Z,99827.56
2019-04-30T17:44:53.798Z,99825.39
2019-04-30T17:47:15.354Z,99824.70
2019-04-30T17:49:48.389Z,99821.51
2019-04-30T17:52:22.190Z,99818.31
2019-04-30T17:54:56.698Z,99824.69
2019-04-30T17:57:33.858Z,99823.16
2019-04-30T18:00:02.324Z,99823.16
2019-04-30T18:02:39.205Z,99824.52
2019-04-30T18:05:13.807Z,99819.44
2019-04-30T18:07:45.761Z,99819.91
2019-04-30T18:10:19.530Z,99822.95
2019-04-30T18:12:51.379Z,99827.13
2019-04-30T18:15:23.181Z,99823.37
2019-04-30T18:18:12.722Z,99824.84
2019-04-30T18:21:21.364Z,99823.02
2019-04-30T18:24:24.253Z,99824.59
2019-04-30T18:27:14.961Z,99825.74
2019-04-30T18:29:47.219Z,99825.28
2019-04-30T18:32:20.488Z,99817.16
2019-04-30T18:34:52.253Z,99819.54
2019-04-30T18:37:24.393Z,99816.00
2019-04-30T18:39:56.112Z,99822.00
2019-04-30T18:42:29.052Z,99820.30
2019-04-30T18:45:01.067Z,99822.56
2019-04-30T18:47:34.332Z,99823.77
2019-04-30T18:50:06.502Z,99824.16
2019-04-30T18:52:40.147Z,99822.94
2019-04-30T18:55:11.989Z,99829.91
2019-04-30T18:57:55.759Z,99838.26
2019-04-30T19:00:21.186Z,99835.48
2019-04-30T19:02:52.974Z,99840.16
2019-04-30T19:05:29.390Z,99842.80
2019-04-30T19:08:06.216Z,99841.43
2019-04-30T19:10:58.900Z,99843.85
2019-04-30T19:14:01.336Z,99849.88
2019-04-30T19:16:53.814Z,99850.11
2019-04-30T19:19:47.294Z,99856.18
2019-04-30T19:22:19.238Z,99859.20
2019-04-30T19:24:57.368Z,99856.79
2019-04-30T19:27:24.859Z,99857.14
2019-04-30T19:29:56.753Z,99854.52
2019-04-30T19:32:30.461Z,99863.41
2019-04-30T19:35:02.378Z,99862.02
2019-04-30T19:37:38.648Z,99860.27
2019-04-30T19:40:11.644Z,99863.44
2019-04-30T19:42:43.978Z,99866.95
2019-04-30T19:45:15.844Z,99863.02
2019-04-30T19:47:48.983Z,99857.00
2019-04-30T19:50:21.120Z,99862.83
2019-04-30T19:52:53.049Z,99859.41
2019-04-30T19:55:24.835Z,99860.56
2019-04-30T19:57:59.715Z,99864.68
2019-04-30T20:00:31.147Z,99878.72
2019-04-30T20:03:03.103Z,99871.63
2019-04-30T20:05:35.386Z,99878.91
2019-04-30T20:08:10.813Z,99873.14
2019-04-30T20:10:41.138Z,99878.89
2019-04-30T20:13:13.018Z,99882.23
2019-04-30T20:15:44.855Z,99880.41
2019-04-30T20:18:19.000Z,99878.39
2019-04-30T20:20:52.701Z,99881.36
2019-04-30T20:23:26.393Z,99882.82
2019-04-30T20:25:58.354Z,99883.45
2019-04-30T20:28:38.927Z,99886.04
2019-04-30T20:31:04.317Z,99887.37
2019-04-30T20:33:36.129Z,99883.05
2019-04-30T20:36:09.186Z,99884.02
2019-04-30T20:39:18.413Z,99880.67
2019-04-30T20:41:52.867Z,99886.63
2019-04-30T20:44:24.700Z,99880.44
2019-04-30T20:46:56.548Z,99888.88
2019-04-30T20:49:29.204Z,99886.92
2019-04-30T20:52:03.553Z,99891.78
2019-04-30T20:54:38.956Z,99887.06
2019-04-30T20:57:10.736Z,99887.06
2019-04-30T20:59:42.595Z,99884.05
2019-04-30T21:02:18.770Z,99889.73
2019-04-30T21:04:52.338Z,99883.97
2019-04-30T21:07:24.140Z,99881.40
2019-04-30T21:09:58.305Z,99886.73
2019-04-30T21:12:30.037Z,99892.78
2019-04-30T21:15:01.941Z,99889.27
2019-04-30T21:17:34.921Z,99887.45
2019-04-30T21:20:09.484Z,99889.52
2019-04-30T21:22:42.204Z,99887.94
2019-04-30T21:25:14.052Z,99882.36
2019-04-30T21:27:45.919Z,99886.47
2019-04-30T21:30:17.767Z,99887.70
2019-04-30T21:33:11.240Z,99889.53
2019-04-30T21:36:08.803Z,99880.91
2019-04-30T21:38:41.907Z,99886.25
2019-04-30T21:41:19.577Z,99891.44
2019-04-30T21:43:51.727Z,99891.81
2019-04-30T21:46:25.217Z,99890.59
2019-04-30T21:48:58.724Z,99885.61
2019-04-30T21:51:30.801Z,99882.80
2019-04-30T21:54:02.831Z,99883.16
2019-04-30T21:56:37.583Z,99887.14
2019-04-30T21:59:23.541Z,99881.81
2019-04-30T22:01:44.522Z,99890.53
2019-04-30T22:04:16.493Z,99884.34
2019-04-30T22:06:49.475Z,99884.58
2019-04-30T22:09:21.719Z,99883.32
2019-04-30T22:11:53.548Z,99882.05
2019-04-30T22:14:25.449Z,99880.56
2019-04-30T22:16:59.548Z,99880.43
2019-04-30T22:19:31.319Z,99881.92
2019-04-30T22:22:03.182Z,99887.26
2019-04-30T22:24:35.089Z,99882.38
2019-04-30T22:27:06.991Z,99887.66
2019-04-30T22:29:42.320Z,99878.30
2019-04-30T22:32:14.230Z,99885.34
2019-04-30T22:34:46.025Z,99880.11
2019-04-30T22:37:19.619Z,99874.78
2019-04-30T22:40:02.887Z,99880.27
2019-04-30T22:42:36.912Z,99881.52
2019-04-30T22:45:30.627Z,99886.11
2019-04-30T22:48:02.970Z,99878.94
2019-04-30T22:50:35.213Z,99881.22
2019-04-30T22:53:07.091Z,99875.72
2019-04-30T22:55:38.872Z,99872.45
2019-04-30T22:58:12.118Z,99874.77
2019-04-30T23:00:46.008Z,99872.33
2019-04-30T23:03:24.265Z,99874.39
2019-04-30T23:05:56.163Z,99878.98
2019-04-30T23:08:28.110Z,99873.13
2019-04-30T23:11:00.410Z,99864.41
2019-04-30T23:13:32.194Z,99867.80
2019-04-30T23:16:04.115Z,99859.39
2019-04-30T23:18:38.982Z,99865.97
2019-04-30T23:21:11.983Z,99866.78
2019-04-30T23:23:43.839Z,99868.64
2019-04-30T23:26:15.676Z,99863.72
2019-04-30T23:28:49.163Z,99864.17
2019-04-30T23:31:21.496Z,99858.78
2019-04-30T23:33:53.474Z,99864.78
2019-04-30T23:36:25.243Z,99861.63
2019-04-30T23:38:59.396Z,99863.67
2019-04-30T23:41:33.709Z,99865.13
2019-04-30T23:44:06.466Z,99866.81
2019-04-30T23:46:39.791Z,99866.81
2019-04-30T23:49:11.834Z,99863.94
2019-04-30T23:51:43.667Z,99864.66
2019-04-30T23:54:15.979Z,99862.82
2019-04-30T23:56:47.803Z,99868.14
2019-04-30T23:59:19.662Z,99859.88
